aviador You're here:

KZPH Decoded Metar

in
Report Time2017-05-26 12:55:00
UTC Time2017-05-26 13:05:55
Flight Rules vfr VFR
WindCalm
Visibility9999 m
Phenomena:N/A
Clouds:N/A
Expected CloudBase > 2,000 ft AGL from Temp-Dew spread
CeilingNone
Temp22°C
Dew Point17°C (73% RH)
QNH1019 hPa
Raw Report
KZPH 261255Z AUTO 00000KT 10SM CLR 22/17 A3009 RMK AO2
T02200167=

Extra information for KZPH:More info

Social comments